Latest Weather Observations for Albany Airport

IDW60801

Issued at 12:05 pm WST Monday 28 July 2014 (issued every 30 minutes, with the page automatically refreshed every 10 minutes)

About weather observations | Map of weather stations | Latest weather observations for WA | Other Formats
Station Details ID: 009999 Name: ALBANY AIRPORT Lat: -34.94 Lon: 117.82 Height: 68.4 m
Data from the previous 72 hours. | See also: Recent months at Albany Airport
Date/Time
WST
Temp
°C
App
Temp
°C
Dew
Point
Rel
Hum
%
Delta-T
°C
Wind Press
QNH
hPa
Press
MSL
hPa
Rain
since 9 am
mm
Dir
 
Spd
km/h
Gust
km/h
Spd
kts
Gust
kts
28/12:00pm 17.8 11.3 10.5 62 3.9 WNW 35 52 19 28 1016.5 1016.7 0.0
28/11:30am 17.3 10.3 9.9 62 3.9 WNW 37 48 20 26 1016.8 - 0.0
28/11:03am 16.8 10.9 11.0 68 3.1 WNW 33 56 18 30 1017.1 - 0.0
28/11:00am 16.7 11.0 11.1 69 3.0 WNW 32 39 17 21 1017.2 - 0.0
28/10:30am 15.6 9.7 11.1 74 2.4 WNW 33 46 18 25 1017.4 - 0.0
28/10:00am 14.9 9.2 11.2 78 2.0 WNW 32 44 17 24 1017.4 - 0.0
28/09:30am 14.2 8.9 11.2 82 1.6 WNW 30 43 16 23 1017.2 - 0.0
28/09:00am 13.1 7.7 11.0 87 1.1 WNW 30 43 16 23 1016.9 1017.1 0.4
28/08:30am 13.4 7.8 10.1 80 1.7 WNW 30 37 16 20 1016.8 - 0.4
28/08:00am 12.7 7.4 9.8 82 1.5 WNW 28 39 15 21 1016.5 - 0.4
28/07:30am 12.2 6.1 9.6 84 1.3 NW 32 46 17 25 1016.0 - 0.4
28/07:00am 12.1 6.3 9.5 84 1.3 WNW 30 37 16 20 1016.1 - 0.4
28/06:30am 12.0 7.0 9.4 84 1.3 WNW 26 41 14 22 1015.6 - 0.4
28/06:00am 12.1 6.3 9.5 84 1.3 WNW 30 39 16 21 1015.5 1015.7 0.4
28/05:30am 12.0 6.5 9.2 83 1.4 WNW 28 39 15 21 1015.4 - 0.4
28/05:00am 11.8 6.3 9.2 84 1.3 WNW 28 39 15 21 1015.3 - 0.4
28/04:56am 12.0 6.5 9.2 83 1.4 WNW 28 39 15 21 1015.3 - 0.4
28/04:41am 11.7 6.0 9.7 87 1.0 WNW 30 48 16 26 1015.4 - 0.4
28/04:38am 11.8 5.7 9.6 86 1.1 WNW 32 48 17 26 1015.6 - 0.4
28/04:30am 11.7 5.9 9.3 85 1.2 WNW 30 43 16 23 1015.6 - 0.4
28/04:03am 12.1 5.8 9.1 82 1.5 WNW 32 43 17 23 1015.8 - 0.4
28/04:00am 12.0 6.1 9.2 83 1.4 WNW 30 39 16 21 1015.8 - 0.4
28/03:45am 12.1 6.6 9.3 83 1.4 WNW 28 41 15 22 1015.8 - 0.4
28/03:30am 12.0 6.4 8.8 81 1.6 WNW 28 37 15 20 1015.6 - 0.4
28/03:00am 11.7 7.0 9.1 84 1.3 NW 24 33 13 18 1015.8 1016.0 0.4
28/02:30am 11.3 6.6 9.1 86 1.1 NW 24 35 13 19 1016.0 - 0.4
28/02:00am 11.1 6.6 8.7 85 1.2 NW 22 28 12 15 1016.1 - 0.4
28/01:30am 11.5 7.1 8.9 84 1.3 WNW 22 30 12 16 1016.2 - 0.4
28/01:00am 11.4 6.2 8.8 84 1.3 NW 26 32 14 17 1016.2 - 0.4
28/12:30am 11.4 6.6 8.8 84 1.3 NW 24 33 13 18 1016.3 - 0.4
28/12:00am 11.3 6.8 8.5 83 1.4 NW 22 32 12 17 1016.6 1016.8 0.4
 
Date/Time
WST
Temp
°C
App
Temp
°C
Dew
Point
Rel
Hum
%
Delta-T
°C
Wind Press
QNH
hPa
Press
MSL
hPa
Rain
since 9 am
mm
Dir
 
Spd
km/h
Gust
km/h
Spd
kts
Gust
kts
27/11:30pm 11.5 6.6 8.5 82 1.5 NW 24 30 13 16 1016.8 - 0.4
27/11:00pm 11.9 6.2 8.5 80 1.7 NW 28 37 15 20 1017.0 - 0.4
27/10:30pm 11.9 6.7 8.7 81 1.6 NW 26 32 14 17 1017.1 - 0.4
27/10:00pm 12.0 6.8 8.8 81 1.6 NW 26 35 14 19 1017.2 - 0.4
27/09:30pm 12.0 7.2 8.8 81 1.6 WNW 24 32 13 17 1017.4 - 0.4
27/09:00pm 12.1 6.9 8.9 81 1.6 NW 26 35 14 19 1017.1 1017.3 0.4
27/08:30pm 12.0 7.2 8.8 81 1.6 NW 24 30 13 16 1017.1 - 0.4
27/08:00pm 12.3 7.4 8.5 77 1.9 NW 24 37 13 20 1017.0 - 0.4
27/07:30pm 12.4 7.5 8.4 76 2.0 NW 24 30 13 16 1017.0 - 0.4
27/07:00pm 12.8 8.5 7.7 71 2.5 NW 20 28 11 15 1016.7 - 0.4
27/06:30pm 13.1 8.3 7.4 68 2.8 NW 22 30 12 16 1016.5 - 0.4
27/06:00pm 14.0 6.7 7.3 64 3.3 WNW 35 54 19 29 1016.2 1016.4 0.4
27/05:51pm 14.4 7.4 6.8 60 3.7 WNW 33 54 18 29 1016.1 - 0.4
27/05:30pm 14.2 8.8 6.3 59 3.8 WNW 24 33 13 18 1016.0 - 0.4
27/05:00pm 14.6 8.8 6.3 57 4.0 WNW 26 37 14 20 1015.6 - 0.4
27/04:30pm 15.5 11.2 7.2 57 4.1 W 19 32 10 17 1015.5 - 0.4
27/04:00pm 15.6 10.3 8.3 62 3.7 WNW 26 39 14 21 1015.7 - 0.4
27/03:30pm 15.2 11.0 9.8 70 2.8 W 22 32 12 17 1015.5 - 0.4
27/03:00pm 15.5 9.9 8.9 65 3.4 WNW 28 35 15 19 1015.5 1015.7 0.0
27/02:30pm 15.2 9.2 8.5 64 3.4 W 30 44 16 24 1015.2 - 0.0
27/02:00pm 14.8 9.3 9.1 68 2.9 W 28 41 15 22 1015.2 - 0.0
27/01:49pm 14.7 9.4 9.7 72 2.6 W 28 48 15 26 1015.3 - 0.0
27/01:30pm 14.0 9.1 11.2 83 1.5 WSW 28 39 15 21 1015.3 - 0.0
27/01:21pm 13.8 8.0 10.8 82 1.6 WSW 32 50 17 27 1015.4 - 0.0
27/01:16pm 14.5 7.4 9.7 73 2.5 WSW 37 50 20 27 1015.3 - 0.0
27/01:00pm 16.5 8.5 7.3 54 4.6 W 39 52 21 28 1015.1 - 0.0
27/12:45pm 16.2 10.0 9.5 64 3.5 WNW 32 50 17 27 1015.3 - 0.0
27/12:30pm 14.5 10.6 10.7 78 2.0 WNW 22 30 12 16 1015.6 - 0.0
27/12:10pm 14.5 7.7 9.4 71 2.6 W 35 46 19 25 1015.9 - 0.0
27/12:00pm 16.0 8.5 7.9 58 4.1 WNW 37 54 20 29 1015.7 1015.9 0.0
27/11:30am 16.0 9.7 7.4 56 4.3 WNW 30 43 16 23 1016.1 - 0.0
27/11:15am 15.7 9.1 7.7 59 4.0 WNW 32 50 17 27 1016.0 - 0.0
27/11:00am 15.3 8.3 8.4 63 3.5 WNW 35 48 19 26 1016.3 - 0.0
27/10:30am 15.2 9.1 9.6 69 2.9 WNW 32 39 17 21 1016.5 - 0.0
27/10:00am 14.4 10.2 9.8 74 2.4 NW 22 32 12 17 1016.6 - 0.0
27/09:30am 13.8 9.7 10.1 78 1.9 NW 22 28 12 15 1016.3 - 0.0
27/09:00am 12.8 8.6 9.7 81 1.6 NW 22 33 12 18 1016.2 1016.4 9.8
27/08:30am 12.0 8.2 9.8 86 1.1 NW 20 26 11 14 1015.9 - 9.8
27/08:00am 11.1 7.4 9.3 89 0.9 NW 19 26 10 14 1015.6 - 9.8
27/07:30am 10.5 6.7 9.1 91 0.7 WNW 19 22 10 12 1015.5 - 9.8
27/07:00am 10.4 6.4 9.2 92 0.6 WNW 20 28 11 15 1015.1 - 9.8
27/06:30am 10.3 6.6 9.3 93 0.5 WNW 19 22 10 12 1014.7 - 9.8
27/06:00am 10.4 7.1 9.4 93 0.5 WNW 17 22 9 12 1014.5 1014.7 9.8
27/05:39am 10.7 6.9 9.7 93 0.5 WNW 20 26 11 14 1014.4 - 9.8
27/05:30am 10.8 7.0 9.8 93 0.5 WNW 20 26 11 14 1014.3 - 9.8
27/05:24am 10.9 7.1 9.9 93 0.5 WNW 20 28 11 15 1014.3 - 9.8
27/05:06am 10.8 6.6 9.8 93 0.5 WNW 22 32 12 17 1014.2 - 9.8
27/05:00am 10.8 6.2 9.6 92 0.6 WNW 24 32 13 17 1014.3 - 9.8
27/04:30am 10.5 6.5 9.1 91 0.7 WNW 20 28 11 15 1014.1 - 9.4
27/04:17am 10.7 6.6 8.7 87 1.0 WNW 20 28 11 15 1013.9 - 9.4
27/04:15am 10.7 6.6 8.7 87 1.0 WNW 20 28 11 15 1013.9 - 9.4
27/04:00am 10.9 6.0 8.5 85 1.2 WNW 24 32 13 17 1013.9 - 9.4
27/03:35am 11.0 6.6 7.5 79 1.7 NW 20 28 11 15 1013.7 - 9.4
27/03:30am 10.8 6.5 7.7 81 1.5 NW 20 28 11 15 1013.7 - 9.4
27/03:16am 11.2 6.1 7.7 79 1.7 WNW 24 32 13 17 1014.0 - 9.4
27/03:00am 11.8 5.7 6.5 70 2.5 WNW 28 39 15 21 1013.5 1013.6 9.4
27/02:30am 11.6 4.7 6.3 70 2.5 NW 32 44 17 24 1013.4 - 9.4
27/02:00am 11.2 4.6 6.1 71 2.4 NW 30 39 16 21 1013.1 - 9.4
27/01:30am 11.1 4.9 6.0 71 2.4 NNW 28 37 15 20 1012.9 - 9.4
27/01:00am 10.5 5.4 6.0 74 2.1 NNW 22 32 12 17 1013.1 - 9.4
27/12:30am 10.4 5.3 5.9 73 2.1 NNW 22 32 12 17 1013.7 - 9.4
27/12:00am 10.2 5.1 5.9 74 2.0 NNW 22 32 12 17 1013.9 1014.0 9.4
 
Date/Time
WST
Temp
°C
App
Temp
°C
Dew
Point
Rel
Hum
%
Delta-T
°C
Wind Press
QNH
hPa
Press
MSL
hPa
Rain
since 9 am
mm
Dir
 
Spd
km/h
Gust
km/h
Spd
kts
Gust
kts
26/11:30pm 10.4 5.7 5.9 73 2.1 NNW 20 32 11 17 1014.0 - 9.4
26/11:00pm 10.5 5.8 6.0 74 2.1 NW 20 30 11 16 1014.5 - 9.4
26/10:30pm 10.1 5.6 6.0 76 1.9 NNW 19 24 10 13 1014.6 - 9.4
26/10:00pm 10.0 4.9 5.9 75 1.9 NNW 22 28 12 15 1014.5 - 9.4
26/09:30pm 9.5 5.3 5.8 78 1.7 NNW 17 24 9 13 1014.3 - 9.4
26/09:00pm 9.9 5.1 5.8 75 1.9 NNW 20 24 11 13 1014.6 1014.8 9.4
26/08:30pm 9.9 5.4 6.0 77 1.8 NNW 19 26 10 14 1014.7 - 9.4
26/08:00pm 9.8 5.7 6.1 78 1.7 NW 17 20 9 11 1014.8 - 9.4
26/07:30pm 9.4 5.7 6.2 80 1.5 NW 15 19 8 10 1014.6 - 9.4
26/07:00pm 10.9 6.1 5.7 70 2.4 NW 20 26 11 14 1014.4 - 9.4
26/06:30pm 11.0 6.5 6.1 72 2.3 NW 19 24 10 13 1014.5 - 9.4
26/06:00pm 10.0 6.4 6.8 80 1.5 NW 15 17 8 9 1014.0 1014.1 9.4
26/05:30pm 12.4 7.7 6.1 65 3.0 W 20 28 11 15 1013.5 - 9.2
26/05:00pm 13.0 9.1 7.0 67 2.9 W 17 24 9 13 1012.8 - 9.2
26/04:30pm 13.4 9.3 8.6 73 2.4 W 20 26 11 14 1012.6 - 9.2
26/04:00pm 13.3 9.2 8.5 72 2.4 WSW 20 30 11 16 1012.3 - 9.2
26/03:30pm 14.4 8.8 7.1 61 3.6 W 26 39 14 21 1012.0 - 9.2
26/03:00pm 14.6 9.3 8.5 67 3.1 W 26 41 14 22 1011.8 1011.9 9.2
26/02:30pm 14.4 8.8 10.2 76 2.2 W 30 43 16 23 1011.3 - 9.2
26/02:00pm 13.4 9.3 11.3 87 1.1 W 24 37 13 20 1011.1 - 9.2
26/01:49pm 12.7 8.4 10.8 88 1.0 W 24 37 13 20 1011.0 - 9.2
26/01:34pm 12.4 7.0 10.9 90 0.8 W 30 44 16 24 1010.7 - 9.2
26/01:30pm 12.7 7.7 11.0 89 0.9 W 28 43 15 23 1010.7 - 9.2
26/01:00pm 12.6 8.8 11.3 92 0.7 W 22 32 12 17 1010.5 - 9.2
26/12:30pm 12.4 9.1 11.5 94 0.5 W 20 30 11 16 1010.3 - 9.2
26/12:00pm 12.8 9.6 11.9 94 0.5 W 20 35 11 19 1010.1 1010.3 8.4
26/11:30am 13.0 9.5 12.1 94 0.5 W 22 33 12 18 1010.8 - 7.6
26/11:17am 13.0 9.4 11.9 93 0.6 W 22 32 12 17 1010.7 - 7.2
26/11:00am 13.1 9.9 12.0 93 0.6 W 20 26 11 14 1010.2 - 7.2
26/10:37am 12.7 8.7 11.8 94 0.5 W 24 32 13 17 1010.1 - 6.8
26/10:30am 12.8 8.1 11.9 94 0.5 W 28 37 15 20 1010.1 - 6.8
26/10:00am 13.6 11.7 13.1 97 0.3 WSW 15 20 8 11 1009.9 - 4.2
26/09:37am 13.9 12.2 13.5 97 0.2 W 15 19 8 10 1009.6 - 2.8
26/09:30am 14.1 12.3 13.4 96 0.4 W 15 20 8 11 1009.6 - 2.2
26/09:00am 13.7 12.6 13.2 97 0.3 WSW 11 17 6 9 1009.3 1009.5 3.8
26/08:49am 13.9 13.3 13.4 97 0.3 SW 9 11 5 6 1009.1 - 3.2
26/08:30am 13.9 12.4 13.2 96 0.4 WSW 13 17 7 9 1009.2 - 2.0
26/08:00am 14.7 12.2 12.3 85 1.3 WNW 17 20 9 11 1009.1 - 0.2
26/07:30am 15.2 11.6 11.9 81 1.8 NNW 22 35 12 19 1008.8 - 0.0
26/07:00am 15.3 11.9 11.2 76 2.2 NNW 20 32 11 17 1008.6 - 0.0
26/06:30am 14.9 11.7 11.2 78 2.0 NNW 19 28 10 15 1008.5 - 0.0
26/06:00am 15.0 11.8 11.3 78 2.0 NNW 19 26 10 14 1008.6 1008.8 0.0
26/05:30am 14.4 12.1 11.8 84 1.4 NW 15 22 8 12 1008.6 - 0.0
26/05:00am 14.3 11.2 11.7 84 1.4 NNW 19 30 10 16 1008.3 - 0.0
26/04:30am 14.7 11.6 11.7 82 1.6 NNW 19 30 10 16 1008.3 - 0.0
26/04:00am 14.4 10.7 11.4 82 1.6 NNW 22 32 12 17 1008.5 - 0.0
26/03:30am 14.7 9.8 11.3 80 1.8 NNW 28 35 15 19 1008.6 - 0.0
26/03:00am 15.0 10.9 11.3 78 2.0 NNW 24 33 13 18 1009.3 1009.5 0.0
26/02:30am 14.3 10.9 11.3 82 1.6 NNW 20 26 11 14 1009.4 - 0.0
26/02:00am 14.4 10.2 11.2 81 1.7 NNW 24 33 13 18 1009.6 - 0.0
26/01:30am 14.3 10.9 11.1 81 1.7 NNW 20 30 11 16 1009.8 - 0.0
26/01:00am 14.1 10.7 11.3 83 1.5 NNW 20 30 11 16 1009.9 - 0.0
26/12:30am 14.1 10.3 11.1 82 1.6 N 22 30 12 16 1010.1 - 0.0
26/12:00am 14.3 9.7 11.1 81 1.7 N 26 37 14 20 1010.3 1010.5 0.0
 
Date/Time
WST
Temp
°C
App
Temp
°C
Dew
Point
Rel
Hum
%
Delta-T
°C
Wind Press
QNH
hPa
Press
MSL
hPa
Rain
since 9 am
mm
Dir
 
Spd
km/h
Gust
km/h
Spd
kts
Gust
kts
25/11:30pm 14.2 10.0 11.0 81 1.7 N 24 32 13 17 1010.8 - 0.0
25/11:00pm 14.1 10.7 11.1 82 1.6 N 20 28 11 15 1011.3 - 0.0
25/10:30pm 14.1 10.3 11.1 82 1.6 N 22 32 12 17 1012.1 - 0.0
25/10:00pm 14.3 11.1 11.1 81 1.7 NNW 19 24 10 13 1012.5 - 0.0
25/09:30pm 14.7 10.9 11.1 79 1.9 NNW 22 30 12 16 1012.6 - 0.0
25/09:00pm 14.9 10.5 10.5 75 2.3 NNW 24 35 13 19 1012.9 1013.0 0.0
25/08:30pm 15.3 11.2 10.2 71 2.7 NNW 22 30 12 16 1013.2 - 0.0
25/08:00pm 15.8 11.3 10.1 69 3.0 NNW 24 33 13 18 1013.2 - 0.0
25/07:42pm 16.3 10.9 9.6 64 3.5 NNW 28 46 15 25 1013.1 - 0.0
25/07:30pm 16.1 10.8 9.8 66 3.3 NNW 28 39 15 21 1013.2 - 0.0
25/07:00pm 15.7 11.1 9.6 67 3.2 NW 24 32 13 17 1012.8 - 0.0
25/06:30pm 15.0 11.4 10.0 72 2.6 N 19 24 10 13 1012.7 - 0.0
25/06:00pm 15.5 11.9 10.0 70 2.9 N 19 30 10 16 1012.6 1012.7 0.0
25/05:30pm 15.9 12.2 10.2 69 3.0 NNW 20 30 11 16 1012.7 - 0.0
25/05:00pm 16.7 11.9 10.3 66 3.4 NW 26 39 14 21 1012.7 - 0.0
25/04:30pm 17.4 11.5 10.3 63 3.8 NNW 32 48 17 26 1012.8 - 0.0
25/04:24pm 17.6 12.0 10.1 61 4.0 NNW 30 48 16 26 1012.8 - 0.0
25/04:21pm 17.5 12.3 10.2 62 3.9 NNW 28 43 15 23 1012.8 - 0.0
25/04:00pm 17.7 16.0 12.5 71 2.9 NNW 13 19 7 10 1012.9 - 0.0
25/03:30pm 18.3 16.3 12.6 69 3.2 NW 15 20 8 11 1013.0 - 0.0
25/03:00pm 18.0 15.1 12.4 70 3.1 NW 19 28 10 15 1012.9 1013.0 0.0
25/02:30pm 17.9 14.3 11.9 68 3.3 NW 22 32 12 17 1013.0 - 0.0
25/02:00pm 16.6 12.3 12.0 74 2.5 NNW 26 44 14 24 1013.3 - 0.0
25/01:30pm 16.4 12.5 12.2 76 2.3 NNW 24 33 13 18 1013.8 - 0.0
25/01:00pm 16.1 11.3 11.7 75 2.4 NNW 28 41 15 22 1014.4 - 0.0
25/12:30pm 16.3 12.9 11.1 71 2.8 NNW 20 32 11 17 1014.8 - 0.0

Other Formats:

Comma delimited format used in spreadsheet applications
http://www.bom.gov.au/fwo/IDW60801/IDW60801.94802.axf

JavaScript Object Notation format (JSON) in row-major order
http://www.bom.gov.au/fwo/IDW60801/IDW60801.94802.json